Pagina principale
METAR-TAF:

METAR-TAF

Aeroporti :

Trevico, Italia

latitudine: 41-03N, longitudine: 015-14E, altezza: 1085 m

Osservazione

Il bollettino è stato emesso 1 ora e 13 minuti fa, alle 14:55 UTC
Vento 14 kt da ovest
Temperature 3°C
Umidità 87%
Pressione 1018 hPa
Visibilità minore di 50 m
nebbia

METAR: LIRT 201455Z 27014KT 0000 FG VV/// 03/01 Q1018 RMK MON INVIS VAL INVIS VIS MIN 0000

Ora: 17:08 (16:08 UTC)


TAF: mancante

Osservazioni e previsioni meteorologiche di più di 4000 aeroporti (messaggi METAR e TAF).

Le stazioni disponibili sono rappresentate dai dischi gialli e rossi sulla carta.

Puntare il mouse per vedere il nome della stazione.

Clicca sopra per visualizzare le osservazioni e previsioni meteorologiche.

Per cambiare la mappa : fare clic sui pulsanti verdi con una croce nera per ingrandire, il pulsante verde con un trattino per diminuire, o sulla freccia verde per le mappe adiacenti.


METAR-TAF: